LGSM

Details ICAO LGSM (SMI)
Name SAMOS
Region Greece
Timezone Europe/Athens (UTC+3.0)
Plans Departing 250
Arriving 331
Stats Elevation 19 ft / 6 m (AMSL)
Location 37.689012° 26.911123°
Runways 1
Magnetic Variation 4.852° E
Sunrise 2018-06-24 02:52:53 UTC / 2018-06-24 05:52:53 Local
Sunset 2018-06-24 17:39:01 UTC / 2018-06-24 20:39:01 Local
Advertisement - Login to hide

Runways

ID Width Length Bearing (true) Bearing (mag) Surface Threshold Offset Overrun Length
09 148 ft / 45 m 6,690 ft / 2,039 m 94.02° 89.17° Asphalt 230 ft / 70 m 0 ft / 0 m
27 148 ft / 45 m 6,690 ft / 2,039 m 274.03° 269.18° Asphalt 0 ft / 0 m 0 ft / 0 m

Map

Weather


0- 5 10 15 20 25 30 35+ Temperature / ° C

Clouds and Precipitation
Forecast for 2018-06-24 12:00 UTC. Updated 3 hours ago

Ground ~20,000 ft ~40,000 ft Winds

METAR

LGSM 241250Z 01011KT 9999 FEW035 31/19 Q1010

TAF

Not found

Frequencies

Tower 124.10 MHz TWR
Approach 122.10 MHz APP
Tower 122.10 MHz TWR
Approach 124.10 MHz APP
Warning: Do not use this data for real-world aviation or navigation. No guarantee of current accuracy is given.